Главная страница
METAR-TAF:

METAR-TAF

Аэропорты :

Актау, Казахстан

широта: 43-52-12N, долгота: 051-06E, высота над уровнем моря: м

Текущие метеонаблюдения

Эта сводка был подготовлена 32 минут назад, в 16:30 UTC
Ветер 6 Узел от юго-восточный
Температура 22°C
Влажность 50%
Давление 1017 hPa
Видимость 10 км и более
Нет облачности ниже 1500 м, и нет кучево-дождевой облачности

METAR: UATE 191630Z 13003MPS CAVOK 22/11 Q1017 R12/0///70 NOSIG RMK QFE761/1015

Время: 22:02 (17:02 UTC)

Прогноз

Эта сводка был подготовлена 6 часа и 1 минут назад, в 11:01 UTC
Прогноз действительный с 19-го 12 UTC до 20-го 12 UTC
Ветер 12 Узел от южный с порывами до 23 Узел
Видимость 10 км и более
Нет облачности ниже 1500 м, и нет кучево-дождевой облачности
изменения
С 19-го 15 UTC до 19-го 17 UTC
Ветер 10 Узел от восточно-юго-восточный

TAF: UATE 191101Z 1912/2012 18006G12MPS CAVOK TX33/2009Z TN17/2002Z BECMG 1915/1917 12005MPS

Метеонаблюдения и прогнозы для более 4000 аэропортов (сводки METAR и TAF).

Имеющиеся станции представлены на карте желтыми и красными точками.

Чтобы увидеть название станции, наведите на нее мышь.

Затем щелкните, чтобы увидеть метеонаблюдения и метеопрогнозы.

Управление картой: чтобы увеличить масштаб, щелкните зеленые кнопки с черным крестиком; чтобы уменьшить масштаб, щелкните зеленую кнопку с тире; для просмотра соседних карт щелкайте зеленые стрелки.


METAR-TAF: